createdAt,value
2022-08-05T00:00:51.606Z,72.12
2022-08-05T00:03:18.197Z,72.04
2022-08-05T00:06:06.539Z,71.89
2022-08-05T00:08:34.846Z,71.39
2022-08-05T00:11:05.523Z,71.15
2022-08-05T00:13:52.910Z,71.05
2022-08-05T00:16:36.007Z,71.25
2022-08-05T00:19:03.926Z,71.55
2022-08-05T00:21:30.752Z,71.72
2022-08-05T00:24:10.155Z,71.59
2022-08-05T00:26:38.119Z,71.64
2022-08-05T00:29:04.684Z,71.67
2022-08-05T00:31:41.340Z,71.79
2022-08-05T00:34:53.414Z,72.32
2022-08-05T00:37:10.309Z,72.61
2022-08-05T00:39:44.330Z,72.90
2022-08-05T00:42:33.008Z,72.94
2022-08-05T00:45:00.167Z,72.69
2022-08-05T00:47:31.664Z,71.91
2022-08-05T00:50:13.409Z,71.72
2022-08-05T00:52:40.158Z,71.16
2022-08-05T00:55:06.947Z,71.40
2022-08-05T00:57:55.468Z,72.14
2022-08-05T01:00:20.230Z,72.92
2022-08-05T01:02:50.221Z,73.22
2022-08-05T01:05:16.868Z,72.66
2022-08-05T01:08:40.760Z,72.45
2022-08-05T01:10:41.823Z,72.59
2022-08-05T01:13:57.421Z,72.14
2022-08-05T01:16:40.273Z,71.12
2022-08-05T01:19:56.319Z,70.04
2022-08-05T01:22:58.236Z,70.48
2022-08-05T01:25:55.993Z,70.79
2022-08-05T01:28:39.518Z,71.20
2022-08-05T01:31:28.952Z,71.89
2022-08-05T01:34:13.956Z,74.29
2022-08-05T01:36:47.658Z,76.04
2022-08-05T01:39:45.637Z,76.37
2022-08-05T01:42:06.389Z,77.96
2022-08-05T01:44:37.663Z,77.60
2022-08-05T01:47:05.217Z,79.99
2022-08-05T01:50:00.446Z,80.29
2022-08-05T01:52:22.918Z,80.23
2022-08-05T01:54:53.315Z,81.20
2022-08-05T01:58:10.214Z,81.33
2022-08-05T02:00:15.213Z,82.00
2022-08-05T02:02:53.709Z,82.05
2022-08-05T02:05:25.174Z,81.65
2022-08-05T02:07:59.925Z,81.98
2022-08-05T02:10:32.925Z,81.71
2022-08-05T02:13:19.032Z,81.57
2022-08-05T02:15:53.933Z,81.18
2022-08-05T02:18:34.573Z,81.19
2022-08-05T02:21:14.784Z,81.41
2022-08-05T02:23:44.473Z,81.04
2022-08-05T02:26:17.222Z,80.70
2022-08-05T02:28:46.363Z,80.20
2022-08-05T02:31:21.743Z,79.39
2022-08-05T02:33:58.078Z,79.26
2022-08-05T02:36:27.553Z,78.39
2022-08-05T02:38:58.733Z,77.20
2022-08-05T02:41:29.032Z,76.94
2022-08-05T02:44:13.569Z,77.80
2022-08-05T02:46:58.702Z,77.84
2022-08-05T02:49:36.059Z,79.28
2022-08-05T02:52:09.135Z,79.55
2022-08-05T02:54:37.697Z,80.08
2022-08-05T02:58:12.297Z,81.57
2022-08-05T02:59:59.475Z,81.42
2022-08-05T03:02:33.927Z,81.47
2022-08-05T03:05:02.583Z,80.84
2022-08-05T03:08:00.559Z,81.02
2022-08-05T03:10:21.858Z,80.96
2022-08-05T03:12:52.128Z,80.78
2022-08-05T03:15:20.588Z,81.07
2022-08-05T03:17:47.109Z,81.16
2022-08-05T03:20:13.968Z,80.65
2022-08-05T03:22:46.896Z,80.86
2022-08-05T03:25:33.078Z,80.69
2022-08-05T03:28:08.455Z,80.49
2022-08-05T03:30:35.786Z,79.82
2022-08-05T03:33:04.383Z,79.56
2022-08-05T03:35:34.041Z,78.95
2022-08-05T03:38:10.503Z,78.64
2022-08-05T03:40:45.222Z,78.46
2022-08-05T03:43:59.257Z,77.91
2022-08-05T03:46:01.764Z,78.26
2022-08-05T03:48:29.663Z,76.59
2022-08-05T03:52:37.042Z,75.66
2022-08-05T03:55:51.843Z,75.85
2022-08-05T03:57:16.589Z,77.05
2022-08-05T03:59:55.001Z,77.27
2022-08-05T04:02:38.976Z,77.16
2022-08-05T04:05:12.908Z,77.56
2022-08-05T04:07:57.919Z,78.32
2022-08-05T04:10:30.856Z,78.41
2022-08-05T04:13:00.589Z,78.87
2022-08-05T04:15:33.172Z,78.93
2022-08-05T04:18:07.168Z,78.55
2022-08-05T04:20:36.142Z,78.88
2022-08-05T04:23:02.716Z,78.66
2022-08-05T04:25:56.472Z,79.38
2022-08-05T04:28:17.490Z,79.37
2022-08-05T04:30:44.795Z,79.48
2022-08-05T04:33:12.183Z,79.57
2022-08-05T04:36:16.661Z,80.04
2022-08-05T04:38:39.869Z,80.20
2022-08-05T04:41:09.635Z,79.93
2022-08-05T04:43:38.058Z,79.86
2022-08-05T04:46:13.256Z,79.96
2022-08-05T04:48:39.963Z,80.22
2022-08-05T04:51:11.159Z,80.07
2022-08-05T04:53:38.568Z,78.63
2022-08-05T04:56:32.275Z,77.05
2022-08-05T04:58:54.436Z,74.77
2022-08-05T05:02:06.139Z,72.29
2022-08-05T05:04:07.627Z,70.56
2022-08-05T05:06:39.618Z,69.45
2022-08-05T05:09:14.260Z,67.89
2022-08-05T05:11:55.541Z,66.47
2022-08-05T05:14:31.315Z,65.77
2022-08-05T05:17:01.805Z,63.54
2022-08-05T05:19:36.858Z,64.40
2022-08-05T05:22:24.283Z,64.15
2022-08-05T05:24:56.787Z,64.20
2022-08-05T05:27:44.525Z,63.44
2022-08-05T05:30:29.508Z,64.08
2022-08-05T05:33:00.083Z,64.23
2022-08-05T05:35:37.763Z,63.58
2022-08-05T05:38:09.254Z,62.68
2022-08-05T05:40:45.062Z,62.43
2022-08-05T05:43:28.078Z,62.11
2022-08-05T05:46:03.685Z,63.22
2022-08-05T05:48:32.079Z,65.17
2022-08-05T05:51:14.929Z,66.64
2022-08-05T05:53:54.102Z,67.98
2022-08-05T05:56:33.065Z,66.71
2022-08-05T05:59:03.292Z,65.71
2022-08-05T06:01:38.197Z,65.14
2022-08-05T06:04:11.668Z,66.73
2022-08-05T06:06:41.747Z,65.37
2022-08-05T06:09:08.685Z,67.22
2022-08-05T06:11:35.527Z,68.15
2022-08-05T06:14:06.184Z,68.30
2022-08-05T06:16:37.306Z,68.17
2022-08-05T06:19:05.999Z,68.10
2022-08-05T06:21:37.658Z,68.71
2022-08-05T06:24:11.524Z,69.77
2022-08-05T06:26:39.137Z,70.36
2022-08-05T06:29:23.827Z,70.89
2022-08-05T06:31:52.724Z,69.57
2022-08-05T06:34:20.055Z,69.73
2022-08-05T06:36:58.243Z,70.25
2022-08-05T06:39:27.860Z,70.44
2022-08-05T06:42:02.038Z,69.87
2022-08-05T06:44:30.783Z,70.02
2022-08-05T06:46:57.454Z,70.55
2022-08-05T06:50:00.138Z,69.82
2022-08-05T06:52:37.258Z,68.75
2022-08-05T06:54:57.678Z,69.05
2022-08-05T06:57:57.360Z,69.51
2022-08-05T07:00:11.339Z,68.87
2022-08-05T07:02:46.376Z,69.50
2022-08-05T07:05:18.650Z,68.99
2022-08-05T07:07:48.908Z,67.41
2022-08-05T07:10:16.498Z,67.79
2022-08-05T07:13:02.612Z,68.72
2022-08-05T07:16:01.286Z,68.73
2022-08-05T07:18:31.861Z,67.10
2022-08-05T07:20:58.695Z,68.77
2022-08-05T07:23:33.720Z,68.78
2022-08-05T07:26:03.555Z,70.39
2022-08-05T07:28:30.147Z,71.18
2022-08-05T07:30:56.857Z,71.27
2022-08-05T07:33:35.183Z,69.92
2022-08-05T07:36:21.170Z,68.79
2022-08-05T07:38:49.031Z,68.04
2022-08-05T07:42:14.678Z,68.47
2022-08-05T07:44:14.353Z,69.56
2022-08-05T07:46:48.539Z,70.17
2022-08-05T07:49:18.164Z,70.21
2022-08-05T07:51:48.635Z,71.72
2022-08-05T07:54:23.216Z,72.75
2022-08-05T07:57:13.575Z,70.67
2022-08-05T07:59:41.202Z,70.11
2022-08-05T08:02:15.435Z,69.16
2022-08-05T08:04:45.069Z,70.07
2022-08-05T08:07:12.249Z,70.87
2022-08-05T08:09:38.825Z,71.49
2022-08-05T08:12:19.959Z,72.75
2022-08-05T08:14:52.677Z,71.65
2022-08-05T08:17:21.227Z,69.17
2022-08-05T08:20:21.167Z,67.48
2022-08-05T08:22:35.687Z,65.99
2022-08-05T08:25:03.182Z,64.28
2022-08-05T08:27:39.980Z,64.07
2022-08-05T08:30:28.607Z,63.83
2022-08-05T08:33:02.627Z,62.23
2022-08-05T08:35:34.968Z,63.53
2022-08-05T08:38:07.518Z,63.78
2022-08-05T08:40:35.392Z,64.12
2022-08-05T08:45:16.652Z,65.39
2022-08-05T08:45:52.904Z,67.10
2022-08-05T08:48:36.196Z,68.72
2022-08-05T08:51:54.528Z,67.57
2022-08-05T08:53:55.215Z,69.34
2022-08-05T08:56:23.598Z,70.10
2022-08-05T08:58:54.342Z,70.37
2022-08-05T09:01:21.730Z,72.51
2022-08-05T09:03:54.602Z,72.32
2022-08-05T09:06:24.255Z,72.06
2022-08-05T09:08:55.971Z,72.67
2022-08-05T09:11:52.748Z,72.52
2022-08-05T09:14:56.488Z,70.96
2022-08-05T09:17:00.439Z,71.76
2022-08-05T09:19:36.271Z,71.28
2022-08-05T09:22:31.285Z,72.73
2022-08-05T09:25:14.055Z,72.74
2022-08-05T09:28:04.082Z,71.32
2022-08-05T09:30:34.565Z,69.25
2022-08-05T09:33:02.322Z,67.07
2022-08-05T09:35:29.458Z,66.39
2022-08-05T09:38:12.853Z,66.97
2022-08-05T09:40:51.794Z,65.40
2022-08-05T09:43:41.322Z,63.90
2022-08-05T09:46:32.770Z,64.42
2022-08-05T09:49:06.727Z,65.75
2022-08-05T09:51:40.035Z,64.98
2022-08-05T09:54:09.445Z,64.58
2022-08-05T09:56:38.090Z,65.08
2022-08-05T09:59:07.727Z,65.85
2022-08-05T10:01:36.963Z,66.18
2022-08-05T10:04:16.199Z,65.60
2022-08-05T10:06:59.264Z,64.62
2022-08-05T10:09:29.242Z,63.81
2022-08-05T10:12:18.664Z,62.61
2022-08-05T10:15:16.225Z,62.87
2022-08-05T10:17:54.442Z,63.83
2022-08-05T10:20:23.930Z,64.07
2022-08-05T10:22:52.661Z,63.81
2022-08-05T10:25:19.613Z,63.71
2022-08-05T10:28:13.272Z,63.10
2022-08-05T10:31:20.479Z,64.58
2022-08-05T10:33:28.890Z,62.29
2022-08-05T10:35:59.718Z,62.42
2022-08-05T10:38:29.163Z,63.03
2022-08-05T10:41:23.444Z,64.32
2022-08-05T10:44:07.051Z,62.75
2022-08-05T10:46:54.690Z,62.68
2022-08-05T10:49:27.594Z,63.78
2022-08-05T10:52:03.347Z,63.39
2022-08-05T10:54:56.987Z,63.44
2022-08-05T10:57:31.747Z,63.96
2022-08-05T11:00:19.081Z,65.63
2022-08-05T11:03:24.811Z,66.96
2022-08-05T11:06:08.494Z,66.15
2022-08-05T11:09:10.747Z,66.36
2022-08-05T11:11:52.886Z,65.59
2022-08-05T11:14:57.886Z,66.00
2022-08-05T11:18:00.349Z,66.11
2022-08-05T11:20:32.490Z,66.76
2022-08-05T11:23:05.822Z,67.72
2022-08-05T11:26:04.763Z,67.80
2022-08-05T11:28:22.266Z,67.41
2022-08-05T11:30:55.515Z,66.52
2022-08-05T11:33:43.789Z,66.32
2022-08-05T11:36:34.729Z,66.24
2022-08-05T11:39:09.190Z,65.90
2022-08-05T11:42:02.010Z,64.85
2022-08-05T11:44:40.506Z,64.27
2022-08-05T11:47:11.115Z,62.47
2022-08-05T11:49:43.268Z,62.42
2022-08-05T11:52:24.347Z,61.44
2022-08-05T11:54:57.486Z,62.37
2022-08-05T11:57:39.360Z,63.02
2022-08-05T12:00:30.982Z,62.97
2022-08-05T12:02:57.852Z,62.95
2022-08-05T12:05:32.227Z,63.29
2022-08-05T12:08:10.053Z,61.90
2022-08-05T12:10:45.472Z,61.52
2022-08-05T12:13:18.953Z,61.38
2022-08-05T12:16:15.028Z,60.81
2022-08-05T12:18:52.427Z,59.84
2022-08-05T12:21:30.621Z,57.25
2022-08-05T12:24:07.121Z,57.84
2022-08-05T12:26:50.000Z,57.88
2022-08-05T12:29:22.998Z,57.89
2022-08-05T12:31:59.740Z,57.41
2022-08-05T12:34:33.377Z,58.41
2022-08-05T12:37:10.820Z,58.69
2022-08-05T12:39:44.799Z,58.66
2022-08-05T12:42:19.634Z,58.12
2022-08-05T12:44:47.565Z,57.57
2022-08-05T12:47:26.225Z,54.66
2022-08-05T12:50:03.448Z,55.06
2022-08-05T12:52:41.692Z,56.06
2022-08-05T12:55:25.357Z,54.75
2022-08-05T12:58:51.395Z,55.24
2022-08-05T13:02:01.736Z,54.99
2022-08-05T13:03:43.067Z,55.60
2022-08-05T13:06:16.128Z,55.77
2022-08-05T13:08:52.010Z,55.82
2022-08-05T13:11:59.967Z,54.08
2022-08-05T13:14:19.566Z,55.51
2022-08-05T13:16:56.390Z,54.69
2022-08-05T13:19:27.252Z,54.59
2022-08-05T13:22:13.832Z,55.36
2022-08-05T13:24:57.991Z,54.16
2022-08-05T13:27:38.716Z,54.76
2022-08-05T13:30:35.105Z,53.82
2022-08-05T13:32:56.495Z,53.35
2022-08-05T13:35:42.734Z,52.34
2022-08-05T13:38:14.528Z,52.81
2022-08-05T13:40:55.192Z,52.79
2022-08-05T13:43:22.373Z,52.65
2022-08-05T13:45:49.174Z,52.10
2022-08-05T13:48:57.601Z,52.75
2022-08-05T13:51:09.554Z,51.43
2022-08-05T13:53:47.728Z,51.87
2022-08-05T13:56:18.474Z,52.11
2022-08-05T13:58:53.476Z,51.82
2022-08-05T14:01:25.946Z,51.32
2022-08-05T14:04:22.096Z,51.31
2022-08-05T14:07:11.897Z,50.64
2022-08-05T14:09:46.092Z,50.91
2022-08-05T14:12:17.872Z,51.55
2022-08-05T14:14:58.559Z,51.78
2022-08-05T14:17:26.618Z,51.32
2022-08-05T14:20:00.905Z,51.09
2022-08-05T14:22:30.467Z,49.85
2022-08-05T14:25:01.708Z,50.21
2022-08-05T14:27:32.867Z,49.92
2022-08-05T14:29:59.690Z,47.38
2022-08-05T14:32:27.754Z,45.99
2022-08-05T14:34:57.042Z,41.51
2022-08-05T14:37:49.039Z,41.86
2022-08-05T14:40:14.071Z,42.27
2022-08-05T14:42:43.324Z,43.04
2022-08-05T14:45:10.529Z,43.71
2022-08-05T14:48:03.700Z,44.21
2022-08-05T14:50:25.339Z,43.72
2022-08-05T14:52:58.762Z,41.84
2022-08-05T14:55:39.580Z,42.23
2022-08-05T14:58:11.575Z,41.38
2022-08-05T15:00:59.092Z,42.04
2022-08-05T15:03:33.778Z,41.74
2022-08-05T15:06:08.014Z,42.26
2022-08-05T15:08:59.146Z,42.29
2022-08-05T15:11:51.196Z,42.69
2022-08-05T15:14:20.038Z,42.03
2022-08-05T15:17:00.777Z,41.79
2022-08-05T15:19:27.380Z,42.32
2022-08-05T15:21:54.516Z,42.38
2022-08-05T15:24:27.030Z,42.30
2022-08-05T15:26:53.602Z,42.79
2022-08-05T15:29:22.421Z,43.23
2022-08-05T15:31:53.103Z,42.03
2022-08-05T15:34:33.161Z,41.99
2022-08-05T15:37:07.021Z,41.05
2022-08-05T15:41:04.618Z,41.07
2022-08-05T15:42:53.549Z,40.91
2022-08-05T15:45:15.334Z,39.74
2022-08-05T15:47:43.578Z,40.73
2022-08-05T15:50:15.275Z,39.81
2022-08-05T15:52:52.948Z,39.40
2022-08-05T15:55:24.867Z,40.97
2022-08-05T15:58:08.309Z,39.98
2022-08-05T16:00:50.553Z,38.98
2022-08-05T16:03:21.938Z,38.21
2022-08-05T16:05:52.568Z,36.60
2022-08-05T16:08:19.417Z,34.76
2022-08-05T16:10:46.052Z,34.45
2022-08-05T16:13:23.239Z,34.64
2022-08-05T16:15:51.897Z,34.76
2022-08-05T16:18:19.251Z,34.77
2022-08-05T16:20:46.491Z,33.65
2022-08-05T16:23:13.063Z,32.73
2022-08-05T16:25:40.153Z,31.48
2022-08-05T16:28:09.695Z,30.87
2022-08-05T16:30:37.075Z,29.51
2022-08-05T16:33:03.811Z,29.01
2022-08-05T16:35:33.694Z,28.63
2022-08-05T16:38:18.813Z,29.23
2022-08-05T16:41:00.578Z,28.48
2022-08-05T16:43:32.626Z,29.00
2022-08-05T16:46:06.977Z,28.04
2022-08-05T16:48:39.607Z,27.23
2022-08-05T16:51:09.684Z,26.75
2022-08-05T16:54:04.304Z,26.39
2022-08-05T16:56:27.537Z,27.25
2022-08-05T16:58:54.105Z,27.64
2022-08-05T17:01:20.957Z,28.35
2022-08-05T17:03:47.700Z,28.08
2022-08-05T17:06:16.430Z,28.05
2022-08-05T17:08:52.913Z,27.90
2022-08-05T17:11:25.357Z,27.78
2022-08-05T17:14:00.695Z,27.70
2022-08-05T17:16:35.902Z,27.62
2022-08-05T17:19:07.689Z,28.73
2022-08-05T17:21:37.426Z,28.90
2022-08-05T17:24:28.419Z,30.70
2022-08-05T17:26:56.693Z,31.83
2022-08-05T17:29:33.059Z,32.34
2022-08-05T17:32:11.953Z,32.78
2022-08-05T17:34:47.747Z,33.00
2022-08-05T17:37:41.889Z,33.65
2022-08-05T17:40:10.379Z,34.12
2022-08-05T17:42:41.342Z,34.57
2022-08-05T17:45:20.287Z,34.99
2022-08-05T17:47:53.502Z,35.92
2022-08-05T17:50:28.715Z,36.36
2022-08-05T17:52:59.047Z,37.06
2022-08-05T17:55:34.137Z,36.94
2022-08-05T17:58:05.895Z,36.98
2022-08-05T18:00:34.564Z,37.89
2022-08-05T18:03:02.130Z,38.24
2022-08-05T18:05:35.248Z,38.70
2022-08-05T18:08:02.799Z,39.07
2022-08-05T18:10:32.048Z,39.46
2022-08-05T18:13:00.522Z,39.81
2022-08-05T18:15:31.215Z,40.21
2022-08-05T18:18:05.679Z,40.58
2022-08-05T18:20:37.896Z,40.68
2022-08-05T18:23:11.378Z,40.92
2022-08-05T18:25:44.064Z,41.46
2022-08-05T18:28:12.155Z,41.75
2022-08-05T18:30:51.054Z,42.35
2022-08-05T18:33:22.706Z,42.27
2022-08-05T18:36:03.944Z,42.42
2022-08-05T18:38:31.938Z,42.59
2022-08-05T18:41:55.981Z,43.23
2022-08-05T18:43:48.536Z,43.14
2022-08-05T18:46:19.564Z,43.27
2022-08-05T18:48:53.683Z,43.52
2022-08-05T18:52:05.611Z,43.50
2022-08-05T18:54:31.400Z,43.12
2022-08-05T18:57:01.987Z,42.96
2022-08-05T18:59:44.278Z,43.03
2022-08-05T19:02:27.446Z,43.45
2022-08-05T19:05:02.167Z,43.59
2022-08-05T19:07:45.614Z,43.80
2022-08-05T19:10:14.372Z,43.89
2022-08-05T19:12:41.373Z,44.23
2022-08-05T19:15:10.706Z,44.18
2022-08-05T19:18:08.549Z,44.33
2022-08-05T19:20:41.600Z,44.74
2022-08-05T19:23:22.609Z,44.64
2022-08-05T19:26:02.070Z,45.12
2022-08-05T19:28:30.782Z,45.50
2022-08-05T19:30:58.148Z,45.45
2022-08-05T19:33:36.395Z,45.57
2022-08-05T19:36:06.597Z,45.56
2022-08-05T19:38:37.307Z,46.14
2022-08-05T19:41:07.054Z,46.31
2022-08-05T19:44:04.583Z,46.40
2022-08-05T19:46:30.169Z,46.73
2022-08-05T19:49:01.139Z,47.13
2022-08-05T19:52:05.821Z,47.14
2022-08-05T19:54:22.849Z,47.74
2022-08-05T19:56:58.744Z,48.00
2022-08-05T19:59:55.505Z,47.46
2022-08-05T20:02:12.995Z,47.76
2022-08-05T20:04:43.167Z,48.33
2022-08-05T20:07:13.281Z,48.21
2022-08-05T20:09:54.657Z,48.09
2022-08-05T20:12:22.717Z,48.49
2022-08-05T20:14:52.257Z,48.46
2022-08-05T20:17:23.602Z,48.73
2022-08-05T20:19:57.336Z,49.00
2022-08-05T20:22:26.974Z,49.21
2022-08-05T20:24:54.620Z,49.41
2022-08-05T20:27:26.726Z,49.10
2022-08-05T20:29:58.205Z,49.02
2022-08-05T20:32:27.052Z,49.69
2022-08-05T20:34:54.504Z,49.60
2022-08-05T20:38:04.742Z,50.38
2022-08-05T20:40:08.843Z,50.50
2022-08-05T20:42:35.640Z,50.62
2022-08-05T20:45:02.702Z,50.85
2022-08-05T20:47:32.102Z,50.94
2022-08-05T20:49:59.448Z,50.96
2022-08-05T20:52:26.336Z,50.42
2022-08-05T20:54:59.161Z,50.82
2022-08-05T20:57:43.941Z,51.12
2022-08-05T21:00:35.086Z,51.10
2022-08-05T21:03:07.385Z,51.40
2022-08-05T21:05:48.083Z,51.46
2022-08-05T21:08:28.192Z,51.74
2022-08-05T21:11:09.903Z,51.44
2022-08-05T21:13:56.501Z,52.10
2022-08-05T21:16:29.595Z,51.68
2022-08-05T21:19:00.527Z,51.78
2022-08-05T21:21:39.220Z,51.66
2022-08-05T21:24:12.714Z,52.04
2022-08-05T21:26:41.344Z,52.10
2022-08-05T21:29:10.144Z,52.37
2022-08-05T21:31:43.499Z,52.05
2022-08-05T21:34:11.039Z,51.86
2022-08-05T21:36:38.146Z,52.57
2022-08-05T21:39:04.911Z,53.12
2022-08-05T21:41:33.926Z,52.91
2022-08-05T21:44:04.101Z,52.94
2022-08-05T21:46:34.229Z,52.72
2022-08-05T21:49:04.610Z,52.94
2022-08-05T21:52:16.015Z,53.03
2022-08-05T21:54:28.007Z,52.80
2022-08-05T21:57:29.265Z,52.98
2022-08-05T22:00:01.919Z,52.88
2022-08-05T22:02:30.366Z,52.85
2022-08-05T22:04:58.391Z,52.74
2022-08-05T22:07:40.042Z,52.68
2022-08-05T22:10:14.104Z,52.72
2022-08-05T22:12:44.975Z,52.55
2022-08-05T22:16:01.293Z,52.85
2022-08-05T22:18:05.064Z,52.77
2022-08-05T22:20:31.783Z,52.90
2022-08-05T22:23:21.231Z,52.67
2022-08-05T22:26:09.648Z,52.89
2022-08-05T22:28:38.714Z,52.95
2022-08-05T22:31:05.982Z,53.06
2022-08-05T22:33:57.134Z,52.85
2022-08-05T22:36:24.126Z,53.08
2022-08-05T22:38:51.515Z,52.92
2022-08-05T22:42:05.522Z,52.41
2022-08-05T22:44:08.643Z,52.55
2022-08-05T22:46:39.764Z,52.43
2022-08-05T22:49:23.020Z,52.46
2022-08-05T22:52:06.019Z,52.65
2022-08-05T22:54:37.671Z,52.81
2022-08-05T22:57:06.271Z,52.54
2022-08-05T22:59:43.569Z,52.88
2022-08-05T23:02:18.200Z,52.68
2022-08-05T23:04:52.156Z,52.81
2022-08-05T23:07:22.162Z,52.32
2022-08-05T23:09:57.805Z,52.53
2022-08-05T23:12:32.732Z,52.39
2022-08-05T23:15:03.565Z,52.30
2022-08-05T23:17:34.405Z,52.08
2022-08-05T23:20:15.567Z,51.84
2022-08-05T23:22:47.742Z,52.18
2022-08-05T23:25:54.939Z,51.82
2022-08-05T23:28:06.941Z,51.90
2022-08-05T23:30:40.226Z,52.07
2022-08-05T23:33:16.189Z,51.94
2022-08-05T23:35:50.226Z,51.60
2022-08-05T23:38:17.034Z,52.15
2022-08-05T23:40:49.571Z,51.93
2022-08-05T23:43:25.387Z,51.74
2022-08-05T23:46:03.879Z,52.02
2022-08-05T23:48:30.435Z,51.97
2022-08-05T23:50:57.002Z,52.07
2022-08-05T23:53:28.569Z,51.27
2022-08-05T23:56:12.016Z,51.60
2022-08-05T23:58:38.737Z,51.63
